Time;durP1;ratioP1;P1;durP2;ratioP2;P2;SDS_P1;SDS_P2;PMS_P1;PMS_P2;Temp;Humidity;BMP_temperature;BMP_pressure;BME280_temperature;BME280_humidity;BME280_pressure;Samples;Min_cycle;Max_cycle;Signal;HPM_P1;HPM_P2
2023/01/28 00:00:12;;;;;;;3.75;2.10;;;;;;;3.85;66.58;98973.41;3151643;28;20413;-68
2023/01/28 00:01:45;;;;;;;4.65;2.08;;;;;;;3.83;66.90;98975.19;3151290;28;20063;-68
2023/01/28 00:03:17;;;;;;;2.65;1.60;;;;;;;3.82;66.85;98974.34;3151649;28;20094;-69
2023/01/28 00:04:49;;;;;;;2.95;1.65;;;;;;;3.83;66.93;98972.59;3150823;28;20054;-69
2023/01/28 00:06:21;;;;;;;4.18;2.10;;;;;;;3.81;66.97;98982.09;3139014;28;20056;-69
2023/01/28 00:07:53;;;;;;;3.30;1.70;;;;;;;3.74;66.96;98965.16;3139116;28;20049;-70
2023/01/28 00:09:26;;;;;;;2.55;1.42;;;;;;;3.77;67.12;98973.63;3139150;28;20091;-69
2023/01/28 00:10:59;;;;;;;6.88;2.25;;;;;;;3.75;67.11;98965.09;3141715;28;20056;-68
2023/01/28 00:12:31;;;;;;;4.22;2.30;;;;;;;3.74;67.18;98973.72;3151794;28;20437;-69
2023/01/28 00:14:03;;;;;;;2.72;1.73;;;;;;;3.75;67.15;98977.16;3152012;28;20117;-70
2023/01/28 00:15:35;;;;;;;3.50;1.90;;;;;;;3.73;67.20;98979.78;3151604;28;20246;-68
2023/01/28 00:17:07;;;;;;;3.05;1.63;;;;;;;3.75;67.27;98972.00;3143666;28;20088;-68
2023/01/28 00:18:40;;;;;;;2.92;1.83;;;;;;;3.75;67.22;98975.41;3151658;28;20047;-68
2023/01/28 00:20:11;;;;;;;4.20;1.95;;;;;;;3.74;67.23;98973.72;3148902;28;20064;-68
2023/01/28 00:21:43;;;;;;;3.40;2.00;;;;;;;3.76;67.35;98976.28;3149960;28;20052;-69
2023/01/28 00:23:15;;;;;;;3.22;1.85;;;;;;;3.76;67.15;98979.69;3151736;28;20056;-69
2023/01/28 00:24:49;;;;;;;4.20;2.38;;;;;;;3.72;67.39;98975.50;3152187;28;20107;-69
2023/01/28 00:26:21;;;;;;;3.58;1.98;;;;;;;3.77;67.27;98981.38;3151758;28;20051;-69
2023/01/28 00:27:53;;;;;;;2.95;1.88;;;;;;;3.79;67.35;98983.91;3151779;28;20493;-69
2023/01/28 00:29:24;;;;;;;2.85;1.80;;;;;;;3.77;67.28;98985.69;3151653;28;20055;-70
2023/01/28 00:30:56;;;;;;;3.20;1.88;;;;;;;3.76;67.21;98992.56;3152097;28;20062;-70
2023/01/28 00:32:28;;;;;;;3.55;1.98;;;;;;;3.77;67.32;98988.25;3151537;28;20058;-69
2023/01/28 00:34:00;;;;;;;4.80;2.25;;;;;;;3.77;67.28;98996.81;3151544;28;20052;-70
2023/01/28 00:35:32;;;;;;;4.50;2.10;;;;;;;3.77;67.32;98991.66;3151686;28;20101;-70
2023/01/28 00:37:04;;;;;;;5.40;1.70;;;;;;;3.75;67.39;98993.44;3151878;28;20051;-70
2023/01/28 00:38:36;;;;;;;5.00;2.20;;;;;;;3.75;67.43;99001.16;3151732;28;20060;-68
2023/01/28 00:40:11;;;;;;;5.82;3.05;;;;;;;3.74;67.64;99006.38;3152207;28;20706;-67
2023/01/28 00:41:43;;;;;;;6.43;2.75;;;;;;;3.73;67.44;99005.53;3154262;28;20144;-68
2023/01/28 00:43:15;;;;;;;3.03;1.98;;;;;;;3.74;67.64;99007.22;3153711;28;20056;-69
2023/01/28 00:44:47;;;;;;;4.40;2.55;;;;;;;3.74;67.44;99012.34;3154161;28;20082;-69
2023/01/28 00:46:20;;;;;;;4.45;2.22;;;;;;;3.74;67.58;99014.09;3154202;28;20047;-69
2023/01/28 00:47:52;;;;;;;4.85;2.33;;;;;;;3.67;67.42;99010.00;3154247;28;20051;-69
2023/01/28 00:49:23;;;;;;;3.97;2.03;;;;;;;3.73;67.31;99023.56;3154061;28;20102;-69
2023/01/28 00:50:55;;;;;;;4.43;2.20;;;;;;;3.73;67.66;99023.56;3154418;28;20048;-69
2023/01/28 00:52:28;;;;;;;3.33;1.98;;;;;;;3.72;67.76;99023.59;3150407;28;20044;-69
2023/01/28 00:54:00;;;;;;;5.13;2.33;;;;;;;3.70;67.84;99025.34;3144829;28;20098;-69
2023/01/28 00:55:34;;;;;;;3.63;2.15;;;;;;;3.70;67.69;99023.66;3147624;28;20044;-69
2023/01/28 00:57:06;;;;;;;4.45;2.08;;;;;;;3.69;67.62;99027.09;3159378;28;20197;-69
2023/01/28 00:58:38;;;;;;;3.40;1.85;;;;;;;3.62;67.65;99012.72;3159042;28;20051;-69
2023/01/28 01:00:11;;;;;;;3.95;2.15;;;;;;;3.65;67.74;99025.50;3159662;28;20076;-70
2023/01/28 01:01:43;;;;;;;3.33;2.10;;;;;;;3.65;67.79;99023.78;3158774;28;20051;-70
2023/01/28 01:03:14;;;;;;;4.93;2.20;;;;;;;3.65;67.66;99026.34;3158953;28;20060;-70
2023/01/28 01:04:53;;;;;;;4.05;2.00;;;;;;;3.64;67.65;99026.41;3159377;28;20052;-70
2023/01/28 01:06:24;;;;;;;3.90;2.03;;;;;;;3.67;67.85;99028.03;3159258;28;20052;-70
2023/01/28 01:07:56;;;;;;;3.38;1.88;;;;;;;3.64;67.74;99034.97;3158762;28;20063;-70
2023/01/28 01:09:28;;;;;;;5.10;2.53;;;;;;;3.63;67.82;99029.84;3159061;28;20458;-70
2023/01/28 01:11:02;;;;;;;3.80;2.22;;;;;;;3.63;67.77;99030.69;3159152;28;20048;-70
2023/01/28 01:12:34;;;;;;;4.03;1.98;;;;;;;3.65;67.83;99022.94;3158432;28;20059;-69
2023/01/28 01:14:05;;;;;;;3.13;2.10;;;;;;;3.67;67.90;99020.31;3159168;28;20052;-69
2023/01/28 01:15:38;;;;;;;5.72;2.53;;;;;;;3.64;67.67;99023.84;3158910;28;20143;-69
2023/01/28 01:17:09;;;;;;;5.47;2.40;;;;;;;3.62;67.72;99023.03;3159063;28;20044;-69
2023/01/28 01:18:41;;;;;;;7.72;2.03;;;;;;;3.62;67.83;99030.75;3158794;28;20616;-69
2023/01/28 01:20:14;;;;;;;4.70;2.25;;;;;;;3.60;67.79;99025.63;3155724;28;20504;-70
2023/01/28 01:21:49;;;;;;;4.70;2.55;;;;;;;3.61;67.78;99021.34;3153265;28;20512;-70
2023/01/28 01:23:21;;;;;;;4.47;2.42;;;;;;;3.60;67.73;99030.78;3159064;28;20048;-70
2023/01/28 01:24:52;;;;;;;4.82;2.20;;;;;;;3.61;67.70;99027.34;3156725;28;20048;-70
2023/01/28 01:26:26;;;;;;;3.40;2.28;;;;;;;3.56;67.61;99020.63;3148250;28;20437;-69
2023/01/28 01:27:58;;;;;;;4.57;2.28;;;;;;;3.61;67.63;99026.50;3158685;28;20128;-71
2023/01/28 01:29:29;;;;;;;3.65;1.73;;;;;;;3.60;67.59;99037.66;3158867;28;20063;-70
2023/01/28 01:31:02;;;;;;;3.95;2.20;;;;;;;3.57;67.55;99025.72;3158881;28;20062;-70
2023/01/28 01:32:34;;;;;;;;;;;;;;;3.56;67.71;99028.34;3158921;28;20040;-70
2023/01/28 01:34:06;;;;;;;3.40;2.17;;;;;;;3.56;67.52;99034.34;3146344;28;20021;-71
2023/01/28 01:35:38;;;;;;;4.78;2.42;;;;;;;3.55;67.72;99035.25;3157776;28;20052;-70
2023/01/28 01:37:10;;;;;;;4.60;2.30;;;;;;;3.58;67.81;99037.72;3157340;28;20603;-70
2023/01/28 01:38:41;;;;;;;3.55;2.00;;;;;;;3.58;67.81;99035.16;3158741;28;20048;-70
2023/01/28 01:40:13;;;;;;;3.13;1.85;;;;;;;3.57;67.63;99041.16;3158681;28;20044;-68
2023/01/28 01:41:46;;;;;;;4.40;2.20;;;;;;;3.54;67.71;99041.25;3158540;28;20505;-68
2023/01/28 01:43:18;;;;;;;9.93;4.20;;;;;;;3.56;67.78;99038.66;3158740;28;20047;-69
2023/01/28 01:44:56;;;;;;;5.45;2.72;;;;;;;3.57;67.87;99033.44;3158786;28;20048;-69
2023/01/28 01:46:36;;;;;;;3.58;2.20;;;;;;;3.53;67.74;99029.28;3158489;28;20079;-70
2023/01/28 01:48:17;;;;;;;6.25;2.80;;;;;;;3.56;67.93;99049.78;3158716;28;20047;-70
2023/01/28 01:49:48;;;;;;;6.95;3.00;;;;;;;3.60;67.74;99045.38;3158384;28;20117;-69
2023/01/28 01:51:25;;;;;;;5.55;2.50;;;;;;;3.62;67.65;99047.03;3158495;28;20131;-69
2023/01/28 01:53:01;;;;;;;6.80;3.28;;;;;;;3.64;67.73;99047.84;3157960;28;20717;-69
2023/01/28 01:54:36;;;;;;;4.78;2.47;;;;;;;3.63;67.77;99047.88;3154729;28;20590;-70
2023/01/28 01:56:10;;;;;;;5.03;2.75;;;;;;;3.63;67.75;99046.13;3153066;28;20112;-70
2023/01/28 01:57:44;;;;;;;4.53;2.53;;;;;;;3.64;67.65;99054.72;3158368;28;20101;-69
2023/01/28 01:59:22;;;;;;;3.72;2.20;;;;;;;3.63;67.70;99060.75;3158162;28;20052;-70
2023/01/28 02:00:54;;;;;;;3.55;2.08;;;;;;;3.62;67.67;99049.59;3158457;28;20048;-69
2023/01/28 02:02:25;;;;;;;4.40;2.40;;;;;;;3.65;67.64;99057.25;3158183;28;20117;-70
2023/01/28 02:04:04;;;;;;;3.55;2.25;;;;;;;3.67;67.46;99061.50;3158466;28;20044;-69
2023/01/28 02:05:37;;;;;;;3.78;2.47;;;;;;;3.63;67.13;99063.31;3158274;28;20051;-69
2023/01/28 02:07:11;;;;;;;4.38;2.42;;;;;;;3.62;67.18;99066.78;3158538;28;20122;-69
2023/01/28 02:08:44;;;;;;;3.00;1.83;;;;;;;3.63;67.24;99056.44;3155868;28;20086;-69
2023/01/28 02:10:16;;;;;;;3.55;2.15;;;;;;;3.67;67.22;99064.94;3149045;28;20512;-69
2023/01/28 02:11:48;;;;;;;5.80;2.58;;;;;;;3.66;67.09;99070.97;3158278;28;20071;-70
2023/01/28 02:13:25;;;;;;;3.85;2.00;;;;;;;3.65;67.09;99069.28;3158552;28;20097;-70
2023/01/28 02:15:02;;;;;;;4.10;2.28;;;;;;;3.66;66.90;99068.38;3158576;28;20598;-70
2023/01/28 02:16:34;;;;;;;3.38;2.30;;;;;;;3.67;67.00;99074.38;3158155;28;20050;-70
2023/01/28 02:18:05;;;;;;;3.72;2.22;;;;;;;3.68;66.93;99081.22;3158365;28;20671;-70
2023/01/28 02:19:41;;;;;;;3.03;2.00;;;;;;;3.63;66.93;99076.19;3158403;28;20100;-70
2023/01/28 02:21:49;;;;;;;4.63;2.25;;;;;;;3.72;66.97;99080.25;3155749;28;20048;-69
2023/01/28 02:23:41;;;;;;;4.07;1.85;;;;;;;3.67;66.78;99076.94;3155016;28;20043;-69
2023/01/28 02:25:33;;;;;;;3.08;1.73;;;;;;;3.64;66.85;99072.75;3158204;28;20063;-70
2023/01/28 02:27:27;;;;;;;2.58;1.83;;;;;;;3.69;66.88;99085.47;3158362;28;20048;-69
2023/01/28 02:29:06;;;;;;;5.05;2.40;;;;;;;3.69;66.89;99083.75;3157897;28;20055;-70
2023/01/28 02:30:42;;;;;;;4.45;2.45;;;;;;;3.72;66.92;99082.81;3157986;28;20052;-70
2023/01/28 02:32:20;;;;;;;3.63;1.92;;;;;;;3.72;67.10;99078.50;3157936;28;20052;-69
2023/01/28 02:33:59;;;;;;;3.42;1.92;;;;;;;3.71;66.88;99083.72;3158340;28;20441;-69
2023/01/28 02:35:38;;;;;;;3.30;1.88;;;;;;;3.73;67.07;99092.25;3154114;28;20117;-70
2023/01/28 02:37:14;;;;;;;4.07;2.05;;;;;;;3.70;66.94;99092.31;3149634;28;20611;-70
2023/01/28 02:38:49;;;;;;;3.83;2.28;;;;;;;3.70;66.89;99093.19;3158013;28;20448;-69
2023/01/28 02:40:26;;;;;;;2.92;1.90;;;;;;;3.68;66.89;99084.63;3158227;28;20078;-70
2023/01/28 02:42:06;;;;;;;3.42;1.92;;;;;;;3.65;66.78;99084.72;3158040;28;20101;-70
2023/01/28 02:43:40;;;;;;;2.20;1.60;;;;;;;3.68;66.82;99094.09;3157884;28;20055;-70
2023/01/28 02:45:20;;;;;;;3.38;1.83;;;;;;;3.70;66.63;99082.00;3157932;28;20052;-70
2023/01/28 02:48:41;;;;;;;4.40;2.00;;;;;;;3.66;66.53;99094.13;3145883;28;20080;-70
2023/01/28 02:50:16;;;;;;;2.83;1.55;;;;;;;3.67;66.59;99094.97;3157329;28;20059;-70
2023/01/28 02:52:03;;;;;;;2.78;1.60;;;;;;;3.70;66.57;99100.91;3157676;28;20117;-70
2023/01/28 02:53:43;;;;;;;2.65;1.70;;;;;;;3.71;66.58;99094.84;3145205;28;20433;-70
2023/01/28 02:55:21;;;;;;;2.55;1.60;;;;;;;3.71;66.39;99106.88;3145097;28;20044;-69
2023/01/28 02:57:01;;;;;;;2.85;1.65;;;;;;;3.69;66.25;99096.63;3145657;28;20530;-69
2023/01/28 02:58:42;;;;;;;2.20;1.60;;;;;;;3.65;66.22;99092.44;3145605;28;20118;-70
2023/01/28 03:00:22;;;;;;;2.92;1.70;;;;;;;3.65;66.19;99097.59;3157677;28;20044;-69
2023/01/28 03:02:00;;;;;;;3.05;1.63;;;;;;;3.68;66.23;99102.66;3150224;28;20083;-69
2023/01/28 03:03:39;;;;;;;2.80;1.70;;;;;;;3.70;66.15;99097.47;3157100;28;20040;-69
2023/01/28 03:05:19;;;;;;;2.15;1.35;;;;;;;3.67;66.13;99092.41;3157482;28;20052;-70
2023/01/28 03:06:57;;;;;;;3.28;1.60;;;;;;;3.70;65.76;99103.47;3157908;28;20147;-70
2023/01/28 03:10:27;;;;;;;2.33;1.38;;;;;;;3.68;65.59;99105.25;3157631;28;20048;-70
2023/01/28 03:38:19;;;;;;;2.47;1.70;;;;;;;3.60;65.04;99114.91;3157714;28;20056;-70
2023/01/28 03:39:50;;;;;;;2.42;1.52;;;;;;;3.59;65.07;99114.06;3157215;28;20051;-70
2023/01/28 03:41:24;;;;;;;2.25;1.30;;;;;;;3.60;64.98;99123.47;3157423;28;20075;-70
2023/01/28 03:42:56;;;;;;;2.25;1.30;;;;;;;3.63;65.08;99127.69;3157654;28;20459;-71
2023/01/28 03:46:18;;;;;;;2.42;1.50;;;;;;;3.61;64.97;99129.47;3157205;28;20075;-70
2023/01/28 03:47:50;;;;;;;2.90;1.35;;;;;;;3.60;64.99;99120.88;3157096;28;20109;-70
2023/01/28 03:49:21;;;;;;;2.47;1.50;;;;;;;3.61;64.92;99117.44;3157437;28;20048;-70
2023/01/28 03:50:55;;;;;;;2.90;1.55;;;;;;;3.60;64.96;99123.47;3157473;28;20060;-71
2023/01/28 03:52:30;;;;;;;2.03;1.40;;;;;;;3.60;65.05;99126.03;3157104;28;20048;-70
2023/01/28 03:54:01;;;;;;;2.33;1.30;;;;;;;3.61;65.10;99127.75;3157181;28;20063;-71
2023/01/28 03:55:33;;;;;;;4.15;1.75;;;;;;;3.61;64.96;99129.47;3147254;28;20135;-71
2023/01/28 03:57:05;;;;;;;2.97;1.45;;;;;;;3.59;65.11;99134.66;3157417;28;20128;-71
2023/01/28 03:58:51;;;;;;;1.67;1.08;;;;;;;3.60;64.95;99127.78;3157311;28;20089;-70
2023/01/28 04:00:23;;;;;;;2.58;1.33;;;;;;;3.59;65.04;99131.25;3157232;28;20079;-71
2023/01/28 04:01:56;;;;;;;2.83;1.45;;;;;;;3.57;64.98;99128.69;3151771;28;20052;-71
2023/01/28 04:03:27;;;;;;;2.38;1.52;;;;;;;3.56;64.91;99118.47;3157546;28;20619;-71
2023/01/28 04:04:59;;;;;;;2.95;1.70;;;;;;;3.53;64.89;99127.09;3157209;28;20055;-70
2023/01/28 04:06:31;;;;;;;2.63;1.50;;;;;;;3.54;65.17;99131.34;3157402;28;20074;-71
2023/01/28 04:08:03;;;;;;;2.78;1.35;;;;;;;3.54;65.02;99131.34;3157129;28;20044;-71
2023/01/28 04:09:35;;;;;;;3.42;1.83;;;;;;;3.57;65.05;99136.41;3157408;28;20048;-69
2023/01/28 04:11:14;;;;;;;2.97;1.65;;;;;;;3.57;65.10;99130.44;3157285;28;20087;-70
2023/01/28 04:12:48;;;;;;;3.28;1.70;;;;;;;3.55;65.16;99135.66;3156963;28;20197;-70
2023/01/28 04:14:20;;;;;;;3.22;1.60;;;;;;;3.54;65.05;99145.97;3156982;28;20524;-70
2023/01/28 04:15:52;;;;;;;2.53;1.60;;;;;;;3.53;65.17;99126.28;3160891;28;20105;-70
2023/01/28 04:17:25;;;;;;;2.78;1.58;;;;;;;3.54;65.17;99128.78;3161092;28;20109;-70
2023/01/28 04:18:57;;;;;;;3.45;1.58;;;;;;;3.53;65.19;99127.09;3161122;28;20123;-70
2023/01/28 04:20:29;;;;;;;3.65;1.58;;;;;;;3.53;65.15;99127.09;3156140;28;20437;-70
2023/01/28 04:22:01;;;;;;;2.90;1.40;;;;;;;3.51;65.17;99123.72;3156317;28;20060;-70
2023/01/28 04:23:33;;;;;;;3.10;1.42;;;;;;;3.52;65.23;99134.84;3161109;28;20059;-70
2023/01/28 04:25:04;;;;;;;1.75;1.17;;;;;;;3.48;65.11;99128.13;3161317;28;20105;-70
2023/01/28 04:26:36;;;;;;;2.67;1.20;;;;;;;3.45;65.25;99136.75;3160939;28;20141;-70
2023/01/28 04:28:08;;;;;;;2.95;1.50;;;;;;;3.46;65.24;99141.03;3161276;28;20051;-70
2023/01/28 04:29:40;;;;;;;2.20;1.48;;;;;;;3.47;65.21;99141.88;3160956;28;20113;-70
2023/01/28 04:31:11;;;;;;;2.60;1.25;;;;;;;3.47;65.28;99136.72;3161170;28;20127;-70
2023/01/28 04:32:46;;;;;;;3.38;1.50;;;;;;;3.48;65.16;99140.97;3161196;28;20044;-70
2023/01/28 04:34:18;;;;;;;3.13;1.48;;;;;;;3.40;65.19;99131.75;3161358;28;20059;-69
2023/01/28 04:35:50;;;;;;;1.77;1.10;;;;;;;3.44;65.22;99145.38;3160830;28;20461;-69
2023/01/28 04:37:22;;;;;;;2.03;1.10;;;;;;;3.43;65.09;99138.53;3160945;28;20055;-69
2023/01/28 04:38:54;;;;;;;3.90;1.70;;;;;;;3.45;65.23;99146.22;3161547;28;20478;-69
2023/01/28 04:40:26;;;;;;;2.88;1.40;;;;;;;3.43;65.18;99138.53;3161003;28;20109;-69
2023/01/28 04:41:57;;;;;;;2.83;1.35;;;;;;;3.40;65.17;99147.19;3160913;28;20052;-69
2023/01/28 04:43:29;;;;;;;2.55;1.45;;;;;;;3.43;65.19;99148.81;3161072;28;20055;-69
2023/01/28 04:45:01;;;;;;;2.63;1.52;;;;;;;3.41;65.19;99150.59;3161011;28;20048;-70
2023/01/28 04:46:33;;;;;;;2.22;1.40;;;;;;;3.37;65.15;99152.44;3161097;28;20059;-69
2023/01/28 04:48:05;;;;;;;3.70;1.30;;;;;;;3.40;65.18;99156.63;3161065;28;20047;-70
2023/01/28 04:49:37;;;;;;;3.50;1.65;;;;;;;3.39;65.22;99158.34;3161039;28;20083;-69
2023/01/28 04:51:09;;;;;;;3.53;1.75;;;;;;;3.43;65.24;99166.84;3161125;28;20044;-69
2023/01/28 04:52:40;;;;;;;3.75;1.73;;;;;;;3.41;65.24;99160.91;3160933;28;20052;-69
2023/01/28 04:54:12;;;;;;;3.50;1.45;;;;;;;3.39;65.18;99163.50;3159540;28;20132;-69
2023/01/28 04:55:44;;;;;;;2.50;1.35;;;;;;;3.31;65.30;99156.88;3152080;28;20505;-70
2023/01/28 04:57:16;;;;;;;2.95;1.55;;;;;;;3.36;65.34;99167.88;3161093;28;20440;-69
2023/01/28 04:58:47;;;;;;;2.42;1.30;;;;;;;3.35;65.23;99167.06;3154921;28;20048;-69
2023/01/28 05:00:20;;;;;;;3.83;1.50;;;;;;;3.34;65.26;99182.53;3160573;28;20051;-73
2023/01/28 05:01:52;;;;;;;2.40;1.30;;;;;;;3.32;65.38;99176.59;3160996;28;20512;-70
2023/01/28 05:03:26;;;;;;;2.80;1.35;;;;;;;3.29;65.45;99179.25;3160974;28;20056;-70
2023/01/28 05:04:58;;;;;;;5.03;1.88;;;;;;;3.27;65.52;99168.97;3161124;28;20081;-72
2023/01/28 05:06:29;;;;;;;2.70;1.42;;;;;;;3.31;65.50;99185.16;3160999;28;20044;-71
2023/01/28 05:08:00;;;;;;;3.00;1.52;;;;;;;3.29;65.43;99186.97;3160892;28;20086;-69
2023/01/28 05:09:32;;;;;;;3.33;1.60;;;;;;;3.29;65.45;99182.66;3160864;28;20059;-68
2023/01/28 05:11:04;;;;;;;2.88;1.60;;;;;;;3.27;65.49;99179.25;3161053;28;20048;-71
2023/01/28 05:12:35;;;;;;;6.22;1.90;;;;;;;3.31;65.51;99187.75;3160756;28;20055;-72
2023/01/28 05:14:07;;;;;;;3.33;1.52;;;;;;;3.34;65.44;99185.97;3149527;28;20048;-70
2023/01/28 05:15:38;;;;;;;3.22;1.20;;;;;;;3.34;65.48;99191.09;3158792;28;20113;-73
2023/01/28 05:17:10;;;;;;;3.40;1.88;;;;;;;3.36;65.42;99189.31;3158517;28;20043;-71
2023/01/28 05:18:46;;;;;;;3.15;1.77;;;;;;;3.33;65.40;99189.41;3161217;28;20060;-71
2023/01/28 05:20:18;;;;;;;4.20;2.03;;;;;;;3.37;65.49;99191.03;3157400;28;20102;-70
2023/01/28 05:21:50;;;;;;;4.20;2.38;;;;;;;3.39;65.42;99196.97;3156841;28;20067;-68
2023/01/28 05:23:22;;;;;;;4.43;1.60;;;;;;;3.29;65.35;99179.25;3158828;28;20052;-67
2023/01/28 05:24:53;;;;;;;2.45;1.50;;;;;;;3.39;65.42;99196.13;3160124;28;20051;-73
2023/01/28 05:26:25;;;;;;;3.03;1.63;;;;;;;3.42;65.30;99206.34;3160163;28;20048;-68
2023/01/28 05:27:56;;;;;;;3.63;1.77;;;;;;;3.43;65.34;99202.88;3158118;28;20055;-71
2023/01/28 05:29:28;;;;;;;4.45;1.65;;;;;;;3.45;65.34;99197.69;3158944;28;20110;-70
2023/01/28 05:31:03;;;;;;;5.63;2.42;;;;;;;3.46;65.21;99199.38;3158933;28;20044;-70
2023/01/28 05:32:34;;;;;;;3.85;1.85;;;;;;;3.40;65.22;99190.94;3158847;28;20486;-71
2023/01/28 05:34:07;;;;;;;4.13;1.90;;;;;;;3.46;65.17;99200.25;3158717;28;20044;-73
2023/01/28 05:35:39;;;;;;;3.72;2.05;;;;;;;3.47;65.06;99199.34;3158565;28;20468;-73
2023/01/28 05:37:10;;;;;;;3.97;1.90;;;;;;;3.50;65.00;99206.16;3158827;28;20066;-69
2023/01/28 05:38:42;;;;;;;3.85;2.17;;;;;;;3.52;65.03;99201.78;3158977;28;20048;-72
2023/01/28 05:40:14;;;;;;;3.75;1.90;;;;;;;3.51;65.04;99211.25;3155424;28;20105;-72
2023/01/28 05:41:45;;;;;;;3.30;1.85;;;;;;;3.52;64.98;99212.09;3153651;28;20136;-74
2023/01/28 05:43:17;;;;;;;4.32;2.17;;;;;;;3.52;65.00;99215.53;3158843;28;20067;-70
2023/01/28 05:44:49;;;;;;;3.92;2.15;;;;;;;3.51;65.17;99211.25;3158435;28;20052;-71
2023/01/28 05:46:21;;;;;;;4.18;2.30;;;;;;;3.53;65.00;99218.94;3158658;28;20121;-71
2023/01/28 05:47:52;;;;;;;4.68;1.98;;;;;;;3.50;65.03;99222.44;3152266;28;20048;-70
2023/01/28 05:49:26;;;;;;;5.95;2.35;;;;;;;3.52;65.00;99227.53;3158556;28;20071;-70
2023/01/28 05:50:58;;;;;;;4.20;2.90;;;;;;;3.50;64.92;99214.72;3154915;28;20064;-68
2023/01/28 05:52:30;;;;;;;4.70;2.30;;;;;;;3.53;64.96;99229.25;3149569;28;20095;-71
2023/01/28 05:54:01;;;;;;;4.07;2.00;;;;;;;3.52;64.96;99227.53;3158058;28;20044;-70
2023/01/28 05:55:33;;;;;;;5.85;2.80;;;;;;;3.53;64.84;99229.25;3149725;28;20418;-72
2023/01/28 05:57:05;;;;;;;3.95;2.25;;;;;;;3.52;64.83;99225.81;3150807;28;20204;-72
2023/01/28 05:58:37;;;;;;;4.22;2.03;;;;;;;3.54;64.87;99239.47;3151558;28;20130;-70
2023/01/28 06:00:10;;;;;;;3.65;2.20;;;;;;;3.53;64.77;99235.22;3150815;28;20628;-70
2023/01/28 06:01:41;;;;;;;3.38;1.83;;;;;;;3.51;64.78;99233.56;3150143;28;20872;-76
2023/01/28 06:03:13;;;;;;;4.93;2.05;;;;;;;3.54;64.81;99238.66;3149881;28;20063;-70
2023/01/28 06:04:46;;;;;;;5.93;2.30;;;;;;;3.54;64.82;99241.22;3148490;28;20098;-70
2023/01/28 06:06:18;;;;;;;5.05;2.45;;;;;;;3.55;65.03;99240.31;3151573;28;20562;-70
2023/01/28 06:07:50;;;;;;;7.05;3.53;;;;;;;3.56;64.89;99260.91;3148964;28;20466;-71
2023/01/28 06:09:22;;;;;;;8.27;3.85;;;;;;;3.56;64.88;99249.75;3150055;28;20059;-72
2023/01/28 06:10:54;;;;;;;5.55;2.88;;;;;;;3.57;65.00;99251.44;3146816;28;20750;-70
2023/01/28 06:12:26;;;;;;;5.43;3.00;;;;;;;3.58;64.95;99258.28;3149445;28;20051;-72
2023/01/28 06:13:58;;;;;;;5.13;2.65;;;;;;;3.62;65.07;99262.47;3149833;28;20044;-70
2023/01/28 06:15:30;;;;;;;28.20;13.02;;;;;;;3.64;64.84;99271.00;3148393;28;20063;-71
2023/01/28 06:17:01;;;;;;;19.17;9.02;;;;;;;3.65;64.81;99264.97;3147270;28;20421;-75
2023/01/28 06:18:36;;;;;;;43.30;19.75;;;;;;;3.70;64.80;99267.41;3148123;28;20444;-73
2023/01/28 06:20:11;;;;;;;8.88;4.75;;;;;;;3.69;64.75;99258.84;3148686;28;20086;-70
2023/01/28 06:21:43;;;;;;;10.60;4.40;;;;;;;3.73;64.61;99268.19;3148950;28;20043;-71
2023/01/28 06:23:15;;;;;;;8.82;3.95;;;;;;;3.78;64.61;99274.06;3151058;28;20055;-71
2023/01/28 06:24:47;;;;;;;5.95;3.20;;;;;;;3.80;64.61;99276.59;3149771;28;20102;-73
2023/01/28 06:26:18;;;;;;;6.72;3.10;;;;;;;3.81;64.65;99276.53;3154789;28;20574;-69
2023/01/28 06:27:50;;;;;;;8.05;3.10;;;;;;;3.82;64.70;99273.09;3153217;28;20245;-73
2023/01/28 06:29:21;;;;;;;13.75;6.93;;;;;;;3.82;64.72;99278.25;3151989;28;20056;-73
2023/01/28 06:30:53;;;;;;;16.10;8.00;;;;;;;3.87;64.75;99276.41;3151118;28;20575;-73
2023/01/28 06:32:25;;;;;;;10.45;5.15;;;;;;;3.87;64.63;99281.56;3147722;28;20048;-72
2023/01/28 06:33:57;;;;;;;11.90;5.57;;;;;;;3.91;64.76;99284.91;3149896;28;20121;-72
2023/01/28 06:35:31;;;;;;;6.25;2.80;;;;;;;3.96;64.70;99279.63;3150180;28;20052;-70
2023/01/28 06:37:03;;;;;;;6.85;3.20;;;;;;;3.95;64.50;99286.50;3150635;28;20052;-70
2023/01/28 06:38:35;;;;;;;4.43;2.13;;;;;;;3.99;64.45;99287.25;3155734;28;20112;-71
2023/01/28 06:40:08;;;;;;;5.55;2.53;;;;;;;3.99;64.47;99287.25;3154659;28;20055;-73
2023/01/28 06:41:40;;;;;;;6.22;2.60;;;;;;;3.98;64.43;99291.56;3150502;28;20528;-71
2023/01/28 06:43:11;;;;;;;5.53;2.40;;;;;;;3.97;64.56;99296.78;3149809;28;20048;-73
2023/01/28 06:44:43;;;;;;;5.25;2.53;;;;;;;3.92;64.55;99293.47;3147693;28;20479;-68
2023/01/28 06:46:14;;;;;;;5.05;2.58;;;;;;;3.96;64.62;99302.78;3148436;28;20440;-68
2023/01/28 06:47:46;;;;;;;4.40;2.20;;;;;;;3.96;64.64;99301.06;3151047;28;20048;-67
2023/01/28 06:49:19;;;;;;;4.60;2.60;;;;;;;3.98;64.67;99309.59;3152463;28;20055;-67
2023/01/28 06:50:52;;;;;;;6.72;2.55;;;;;;;3.97;64.51;99307.94;3150439;28;20123;-67
2023/01/28 06:52:24;;;;;;;;;;;;;;;3.94;64.68;99309.75;3148690;28;20048;-66
2023/01/28 06:53:56;;;;;;;7.72;2.72;;;;;;;3.92;64.77;99309.75;3156518;28;19923;-66
2023/01/28 06:55:28;;;;;;;10.63;3.13;;;;;;;3.94;64.75;99307.16;3151035;28;20052;-65
2023/01/28 06:57:00;;;;;;;8.60;3.17;;;;;;;3.94;64.82;99314.91;3152846;28;20070;-77
2023/01/28 06:58:32;;;;;;;5.25;2.58;;;;;;;3.97;64.75;99301.94;3150020;28;20048;-71
2023/01/28 07:00:04;;;;;;;4.78;3.08;;;;;;;3.98;64.80;99308.75;3153743;28;20490;-67
2023/01/28 07:01:36;;;;;;;5.68;2.58;;;;;;;3.99;64.77;99313.03;3148943;28;20441;-74
2023/01/28 07:03:07;;;;;;;5.68;2.65;;;;;;;4.02;64.74;99315.50;3149996;28;20483;-71
2023/01/28 07:04:38;;;;;;;5.90;2.85;;;;;;;4.04;64.65;99322.31;3150817;28;20044;-69
2023/01/28 07:06:12;;;;;;;5.70;3.17;;;;;;;4.06;64.76;99323.13;3148238;28;20048;-69
2023/01/28 07:07:45;;;;;;;7.82;3.03;;;;;;;4.09;64.78;99317.91;3151326;28;20071;-70
2023/01/28 07:09:16;;;;;;;;;;;;;;;4.07;64.85;99318.81;3148798;28;20124;-74
2023/01/28 07:10:49;;;;;;;4.22;2.60;;;;;;;4.07;64.89;99326.56;3148817;28;20001;-69
2023/01/28 07:12:21;;;;;;;5.47;2.67;;;;;;;4.09;64.90;99327.38;3153551;28;20599;-71
2023/01/28 07:13:51;;;;;;;6.53;2.92;;;;;;;4.14;64.83;99329.81;3149884;28;20106;-73
2023/01/28 07:15:23;;;;;;;6.88;3.28;;;;;;;4.15;64.90;99328.94;3149210;28;20056;-73
2023/01/28 07:16:55;;;;;;;6.22;3.15;;;;;;;4.16;64.86;99328.03;3149324;28;20059;-69
2023/01/28 07:18:27;;;;;;;7.40;3.58;;;;;;;4.22;64.96;99327.88;3156890;28;20510;-71
2023/01/28 07:19:59;;;;;;;6.70;3.45;;;;;;;4.23;64.90;99339.88;3149124;28;20414;-70
2023/01/28 07:21:32;;;;;;;6.70;3.67;;;;;;;4.25;64.82;99336.38;3150218;28;20540;-73
2023/01/28 07:23:03;;;;;;;8.88;3.58;;;;;;;4.27;64.77;99336.34;3146795;28;20052;-75
2023/01/28 07:24:35;;;;;;;5.32;2.97;;;;;;;4.30;64.79;99331.09;3151141;28;20527;-71
2023/01/28 07:26:06;;;;;;;6.25;3.10;;;;;;;4.32;64.60;99331.91;3150085;28;20105;-70
2023/01/28 07:27:38;;;;;;;5.57;3.00;;;;;;;4.34;64.38;99338.69;3150195;28;20074;-70
2023/01/28 07:29:10;;;;;;;4.25;2.67;;;;;;;4.35;64.27;99344.72;3148420;28;20126;-69
2023/01/28 07:30:42;;;;;;;4.80;2.60;;;;;;;4.39;64.36;99345.47;3147911;28;20120;-69
2023/01/28 07:32:14;;;;;;;7.57;2.78;;;;;;;4.39;64.23;99342.91;3148192;28;20048;-69
2023/01/28 07:33:46;;;;;;;5.70;2.90;;;;;;;4.43;64.15;99344.50;3150742;28;20120;-71
2023/01/28 07:35:18;;;;;;;6.80;3.10;;;;;;;4.42;63.78;99340.25;3148426;28;20047;-70
2023/01/28 07:36:51;;;;;;;4.57;2.35;;;;;;;4.40;63.75;99353.16;3155929;28;20574;-70
2023/01/28 07:38:23;;;;;;;4.70;2.75;;;;;;;4.41;63.67;99357.44;3151403;28;20436;-76
2023/01/28 07:39:54;;;;;;;5.40;2.65;;;;;;;4.44;63.87;99356.53;3151554;28;20060;-75
2023/01/28 07:41:26;;;;;;;3.90;2.25;;;;;;;4.48;63.68;99350.38;3148448;28;20550;-71
2023/01/28 07:42:57;;;;;;;6.03;2.80;;;;;;;4.50;63.64;99359.78;3150624;28;20114;-71
2023/01/28 07:44:29;;;;;;;4.38;2.40;;;;;;;4.52;63.40;99364.88;3152022;28;20151;-74
2023/01/28 07:46:01;;;;;;;4.45;2.72;;;;;;;4.54;63.38;99358.78;3147473;28;20052;-76
2023/01/28 07:47:32;;;;;;;5.45;2.70;;;;;;;4.56;63.12;99358.75;3150438;28;20150;-70
2023/01/28 07:49:04;;;;;;;4.35;2.55;;;;;;;4.59;63.09;99361.25;3154203;28;20056;-71
2023/01/28 07:50:36;;;;;;;5.40;2.30;;;;;;;4.65;62.82;99373.13;3149839;28;20048;-72
2023/01/28 07:52:09;;;;;;;5.15;2.42;;;;;;;4.67;62.58;99367.00;3150111;28;20520;-72
2023/01/28 07:53:41;;;;;;;4.93;2.72;;;;;;;4.71;62.40;99366.06;3153362;28;20056;-76
2023/01/28 07:55:14;;;;;;;3.72;2.05;;;;;;;4.68;62.32;99355.00;3152974;28;20052;-73